Horbury, United Kingdom
Current Conditions -  °F | °C
As of 1:20 PM on Sunday 21 Dec 2014 (Local Time) from EGNM Reporting Station
Light Rain Light Rain  
Wind Chill: 39°   Ceiling: 1000
Heat Index: 46°   Visibility: 6mi
Dew Point: 45°   Wind: 18mph
Humidity: 93%   Direction: 240°WSW
Pressure: 30"   Gusts: 30mph
Location:  53.66°N, 1.56°W
Report Text: EGNM 211320Z 24016G26KT 200V270 9999 7000W -RA BKN010 08/07 Q1016
Loading
Personal Weather Stations






























Interactive Weather Map New forecast layout! Learn more

10-Day Weather Forecast

Advertisements
Track Severe Weather on mobile